createdAt,value
2022-11-26T00:02:28.025Z,13.70
2022-11-26T00:04:56.622Z,12.63
2022-11-26T00:07:27.244Z,13.43
2022-11-26T00:09:56.296Z,12.47
2022-11-26T00:12:26.384Z,12.30
2022-11-26T00:14:54.125Z,13.07
2022-11-26T00:17:22.006Z,12.57
2022-11-26T00:19:49.429Z,12.00
2022-11-26T00:22:41.264Z,11.73
2022-11-26T00:25:14.884Z,12.47
2022-11-26T00:27:43.195Z,11.43
2022-11-26T00:30:27.910Z,11.83
2022-11-26T00:32:56.087Z,9.83
2022-11-26T00:35:23.658Z,9.83
2022-11-26T00:37:57.917Z,8.10
2022-11-26T00:40:33.171Z,8.00
2022-11-26T00:43:02.015Z,6.87
2022-11-26T00:45:30.991Z,5.93
2022-11-26T00:47:58.482Z,5.67
2022-11-26T00:50:28.365Z,5.27
2022-11-26T00:52:56.741Z,5.20
2022-11-26T00:55:31.697Z,4.17
2022-11-26T00:57:59.805Z,3.90
2022-11-26T01:00:29.853Z,3.77
2022-11-26T01:02:57.967Z,3.90
2022-11-26T01:05:30.561Z,3.47
2022-11-26T01:08:00.588Z,3.93
2022-11-26T01:10:30.051Z,3.80
2022-11-26T01:12:57.395Z,3.63
2022-11-26T01:15:26.736Z,3.57
2022-11-26T01:17:54.449Z,3.50
2022-11-26T01:20:25.339Z,3.40
2022-11-26T01:22:54.561Z,4.10
2022-11-26T01:25:24.283Z,3.63
2022-11-26T01:27:52.108Z,3.50
2022-11-26T01:30:26.216Z,3.80
2022-11-26T01:32:53.736Z,3.40
2022-11-26T01:35:21.774Z,3.87
2022-11-26T01:37:49.632Z,4.90
2022-11-26T01:40:37.715Z,4.67
2022-11-26T01:43:22.752Z,5.27
2022-11-26T01:45:50.160Z,5.57
2022-11-26T01:48:25.511Z,5.67
2022-11-26T01:51:10.416Z,6.63
2022-11-26T01:53:55.019Z,6.20
2022-11-26T01:56:29.597Z,6.07
2022-11-26T01:59:17.233Z,6.70
2022-11-26T02:01:44.875Z,7.20
2022-11-26T02:04:16.914Z,7.30
2022-11-26T02:06:45.549Z,7.13
2022-11-26T02:09:12.949Z,7.60
2022-11-26T02:11:41.172Z,8.30
2022-11-26T02:14:25.374Z,7.90
2022-11-26T02:17:29.589Z,7.83
2022-11-26T02:20:03.097Z,7.03
2022-11-26T02:22:47.051Z,8.30
2022-11-26T02:25:35.052Z,7.87
2022-11-26T02:28:14.338Z,7.57
2022-11-26T02:30:53.909Z,7.50
2022-11-26T02:33:27.305Z,7.70
2022-11-26T02:36:03.681Z,7.90
2022-11-26T02:38:33.098Z,8.10
2022-11-26T02:41:01.602Z,8.67
2022-11-26T02:43:29.762Z,8.00
2022-11-26T02:46:01.722Z,8.07
2022-11-26T02:48:34.238Z,8.40
2022-11-26T02:51:10.080Z,8.07
2022-11-26T02:53:39.232Z,7.93
2022-11-26T02:56:26.293Z,8.20
2022-11-26T02:58:55.519Z,8.10
2022-11-26T03:01:38.436Z,7.70
2022-11-26T03:04:16.813Z,7.57
2022-11-26T03:06:44.526Z,7.80
2022-11-26T03:09:11.837Z,8.07
2022-11-26T03:11:39.315Z,7.80
2022-11-26T03:14:06.633Z,8.27
2022-11-26T03:16:34.150Z,8.20
2022-11-26T03:19:01.904Z,7.73
2022-11-26T03:21:29.484Z,7.70
2022-11-26T03:23:56.762Z,7.73
2022-11-26T03:26:24.317Z,7.47
2022-11-26T03:28:51.600Z,7.83
2022-11-26T03:31:18.972Z,7.57
2022-11-26T03:33:46.202Z,7.20
2022-11-26T03:36:13.471Z,7.00
2022-11-26T03:38:40.717Z,7.53
2022-11-26T03:41:08.051Z,7.47
2022-11-26T03:43:35.613Z,6.60
2022-11-26T03:46:02.934Z,6.73
2022-11-26T03:48:30.285Z,6.93
2022-11-26T03:50:57.933Z,7.50
2022-11-26T03:53:25.536Z,7.13
2022-11-26T03:55:53.018Z,7.00
2022-11-26T03:58:20.674Z,7.53
2022-11-26T04:00:47.961Z,7.30
2022-11-26T04:03:15.544Z,7.40
2022-11-26T04:05:42.841Z,8.07
2022-11-26T04:08:10.312Z,7.90
2022-11-26T04:10:37.568Z,8.00
2022-11-26T04:13:04.830Z,7.40
2022-11-26T04:15:32.280Z,7.37
2022-11-26T04:17:59.579Z,8.10
2022-11-26T04:20:26.906Z,8.47
2022-11-26T04:22:54.146Z,8.60
2022-11-26T04:25:21.584Z,8.40
2022-11-26T04:27:52.532Z,8.47
2022-11-26T04:30:20.289Z,9.00
2022-11-26T04:32:47.652Z,8.40
2022-11-26T04:35:15.070Z,8.10
2022-11-26T04:37:42.547Z,8.80
2022-11-26T04:40:10.779Z,8.20
2022-11-26T04:42:38.164Z,8.23
2022-11-26T04:45:06.146Z,7.20
2022-11-26T04:47:33.489Z,7.67
2022-11-26T04:50:00.740Z,7.17
2022-11-26T04:52:28.055Z,7.70
2022-11-26T04:54:55.481Z,8.67
2022-11-26T04:57:22.906Z,7.77
2022-11-26T04:59:53.922Z,8.23
2022-11-26T05:02:21.593Z,8.17
2022-11-26T05:04:48.862Z,8.23
2022-11-26T05:07:16.192Z,8.00
2022-11-26T05:09:43.629Z,8.03
2022-11-26T05:12:12.908Z,7.97
2022-11-26T05:14:40.428Z,7.40
2022-11-26T05:17:08.068Z,7.93
2022-11-26T05:19:35.401Z,7.67
2022-11-26T05:22:02.667Z,7.90
2022-11-26T05:24:29.959Z,8.13
2022-11-26T05:26:57.563Z,7.57
2022-11-26T05:29:25.917Z,8.20
2022-11-26T05:31:53.547Z,7.67
2022-11-26T05:34:21.114Z,8.70
2022-11-26T05:36:48.566Z,7.20
2022-11-26T05:39:16.632Z,7.50
2022-11-26T05:41:44.082Z,7.10
2022-11-26T05:44:11.330Z,7.23
2022-11-26T05:46:41.034Z,7.70
2022-11-26T05:49:08.893Z,7.73
2022-11-26T05:51:36.576Z,7.30
2022-11-26T05:54:04.156Z,7.63
2022-11-26T05:56:31.466Z,8.40
2022-11-26T05:58:58.715Z,8.00
2022-11-26T06:01:26.086Z,8.27
2022-11-26T06:03:53.397Z,8.23
2022-11-26T06:06:20.742Z,8.97
2022-11-26T06:08:48.204Z,8.50
2022-11-26T06:11:15.512Z,8.47
2022-11-26T06:13:43.149Z,9.00
2022-11-26T06:16:10.731Z,9.23
2022-11-26T06:18:39.136Z,8.83
2022-11-26T06:21:08.176Z,9.63
2022-11-26T06:23:35.484Z,10.07
2022-11-26T06:26:11.233Z,9.37
2022-11-26T06:28:39.196Z,9.53
2022-11-26T06:31:09.295Z,9.53
2022-11-26T06:33:37.567Z,9.57
2022-11-26T06:36:05.900Z,10.10
2022-11-26T06:38:33.643Z,8.97
2022-11-26T06:41:02.503Z,9.70
2022-11-26T06:43:30.707Z,9.57
2022-11-26T06:46:06.090Z,8.90
2022-11-26T06:48:34.965Z,9.30
2022-11-26T06:51:06.358Z,10.17
2022-11-26T06:53:33.780Z,9.80
2022-11-26T06:56:16.380Z,9.80
2022-11-26T06:58:46.729Z,9.40
2022-11-26T07:01:23.850Z,9.93
2022-11-26T07:03:52.020Z,10.33
2022-11-26T07:06:25.262Z,9.40
2022-11-26T07:08:54.331Z,8.90
2022-11-26T07:11:22.864Z,9.50
2022-11-26T07:13:50.305Z,9.93
2022-11-26T07:16:17.902Z,9.90
2022-11-26T07:18:56.404Z,10.27
2022-11-26T07:21:28.397Z,9.13
2022-11-26T07:23:55.864Z,10.10
2022-11-26T07:26:23.641Z,8.33
2022-11-26T07:28:51.572Z,9.50
2022-11-26T07:31:21.001Z,8.80
2022-11-26T07:33:49.202Z,9.47
2022-11-26T07:36:19.261Z,9.07
2022-11-26T07:38:46.586Z,9.70
2022-11-26T07:41:16.453Z,8.13
2022-11-26T07:43:44.803Z,9.50
2022-11-26T07:46:16.204Z,8.67
2022-11-26T07:48:44.092Z,8.80
2022-11-26T07:51:31.368Z,8.37
2022-11-26T07:54:00.327Z,9.10
2022-11-26T07:56:27.673Z,8.70
2022-11-26T07:58:55.307Z,8.43
2022-11-26T08:01:27.409Z,9.37
2022-11-26T08:03:55.722Z,8.70
2022-11-26T08:06:25.362Z,8.73
2022-11-26T08:08:53.276Z,8.47
2022-11-26T08:11:23.505Z,7.97
2022-11-26T08:13:59.051Z,8.37
2022-11-26T08:16:28.859Z,8.07
2022-11-26T08:18:58.862Z,8.43
2022-11-26T08:21:26.558Z,8.40
2022-11-26T08:23:54.997Z,8.80
2022-11-26T08:26:30.631Z,10.03
2022-11-26T08:29:01.472Z,10.13
2022-11-26T08:31:29.255Z,16.00
2022-11-26T08:33:59.464Z,14.97
2022-11-26T08:36:28.640Z,11.70
2022-11-26T08:38:56.816Z,9.73
2022-11-26T08:41:24.157Z,10.23
2022-11-26T08:44:06.162Z,9.73
2022-11-26T08:46:36.823Z,9.23
2022-11-26T08:49:04.910Z,8.90
2022-11-26T08:51:32.897Z,8.67
2022-11-26T08:54:00.278Z,7.90
2022-11-26T08:56:27.971Z,8.03
2022-11-26T08:58:55.225Z,7.67
2022-11-26T09:01:26.184Z,8.57
2022-11-26T09:03:57.226Z,11.97
2022-11-26T09:06:26.638Z,8.30
2022-11-26T09:09:13.039Z,6.73
2022-11-26T09:11:54.190Z,6.77
2022-11-26T09:14:25.350Z,5.30
2022-11-26T09:16:56.905Z,4.67
2022-11-26T09:19:25.084Z,10.07
2022-11-26T09:21:52.360Z,4.77
2022-11-26T09:24:20.277Z,4.93
2022-11-26T09:26:50.637Z,7.67
2022-11-26T09:29:21.486Z,11.17
2022-11-26T09:32:21.356Z,5.00
2022-11-26T09:34:38.205Z,4.30
2022-11-26T09:37:05.881Z,4.27
2022-11-26T09:39:33.747Z,4.57
2022-11-26T09:42:10.776Z,3.60
2022-11-26T09:44:41.344Z,3.70
2022-11-26T09:47:14.080Z,4.33
2022-11-26T09:49:59.175Z,4.03
2022-11-26T09:52:31.178Z,3.87
2022-11-26T09:55:08.217Z,4.03
2022-11-26T09:58:07.698Z,4.00
2022-11-26T10:00:44.185Z,3.10
2022-11-26T10:03:30.602Z,3.90
2022-11-26T10:06:07.000Z,3.50
2022-11-26T10:08:58.146Z,3.70
2022-11-26T10:11:54.374Z,2.80
2022-11-26T10:14:30.633Z,3.43
2022-11-26T10:17:23.525Z,3.03
2022-11-26T10:20:15.631Z,3.00
2022-11-26T10:23:04.103Z,3.17
2022-11-26T10:25:39.450Z,3.30
2022-11-26T10:28:37.163Z,3.17
2022-11-26T10:31:16.710Z,3.30
2022-11-26T10:34:11.837Z,3.40
2022-11-26T10:36:42.666Z,3.50
2022-11-26T10:39:18.175Z,3.37
2022-11-26T10:41:46.314Z,3.33
2022-11-26T10:44:41.404Z,3.70
2022-11-26T10:47:31.224Z,3.30
2022-11-26T10:50:10.443Z,3.10
2022-11-26T10:52:46.622Z,4.37
2022-11-26T10:55:19.909Z,4.10
2022-11-26T10:58:02.384Z,3.47
2022-11-26T11:00:40.644Z,4.00
2022-11-26T11:03:44.621Z,3.10
2022-11-26T11:06:20.302Z,2.90
2022-11-26T11:08:49.642Z,3.20
2022-11-26T11:11:28.479Z,2.90
2022-11-26T11:13:56.196Z,3.93
2022-11-26T11:16:28.478Z,3.43
2022-11-26T11:19:02.696Z,3.47
2022-11-26T11:21:35.410Z,3.60
2022-11-26T11:24:16.648Z,3.80
2022-11-26T11:26:47.088Z,3.27
2022-11-26T11:29:43.961Z,3.50
2022-11-26T11:32:35.203Z,3.73
2022-11-26T11:35:33.221Z,3.17
2022-11-26T11:38:01.595Z,3.43
2022-11-26T11:40:31.059Z,4.23
2022-11-26T11:43:06.978Z,4.20
2022-11-26T11:45:42.279Z,3.33
2022-11-26T11:48:31.288Z,4.17
2022-11-26T11:51:23.049Z,3.53
2022-11-26T11:54:23.699Z,4.13
2022-11-26T11:57:10.249Z,3.77
2022-11-26T12:00:09.843Z,4.10
2022-11-26T12:03:04.309Z,3.70
2022-11-26T12:05:37.724Z,3.63
2022-11-26T12:08:42.770Z,3.53
2022-11-26T12:11:30.209Z,3.97
2022-11-26T12:14:20.595Z,3.67
2022-11-26T12:21:45.161Z,4.07
2022-11-26T12:24:33.508Z,4.00
2022-11-26T12:27:10.541Z,4.20
2022-11-26T12:29:47.097Z,4.10
2022-11-26T12:32:28.444Z,3.53
2022-11-26T12:35:01.088Z,3.50
2022-11-26T12:37:35.230Z,3.50
2022-11-26T12:40:08.891Z,3.80
2022-11-26T12:42:58.090Z,3.80
2022-11-26T12:45:49.860Z,3.80
2022-11-26T12:48:32.224Z,3.70
2022-11-26T12:51:07.205Z,4.40
2022-11-26T12:54:02.445Z,3.67
2022-11-26T12:56:58.737Z,3.90
2022-11-26T12:59:28.921Z,4.00
2022-11-26T13:01:57.427Z,3.60
2022-11-26T13:04:43.546Z,4.10
2022-11-26T13:07:31.769Z,3.87
2022-11-26T13:10:25.416Z,3.20
2022-11-26T13:13:21.771Z,3.37
2022-11-26T13:15:54.691Z,3.77
2022-11-26T13:18:33.254Z,3.43
2022-11-26T13:21:09.678Z,4.33
2022-11-26T13:24:19.094Z,3.63
2022-11-26T13:27:09.300Z,3.73
2022-11-26T13:30:15.369Z,3.70
2022-11-26T13:33:01.340Z,4.13
2022-11-26T13:35:57.024Z,4.23
2022-11-26T13:38:46.930Z,4.03
2022-11-26T13:41:52.372Z,4.00
2022-11-26T13:44:25.634Z,4.50
2022-11-26T13:46:57.680Z,4.10
2022-11-26T13:49:37.783Z,4.50
2022-11-26T13:52:25.501Z,4.50
2022-11-26T13:55:10.597Z,4.67
2022-11-26T13:57:45.243Z,5.13
2022-11-26T14:00:25.590Z,5.13
2022-11-26T14:02:53.108Z,4.90
2022-11-26T14:05:20.438Z,4.63
2022-11-26T14:07:47.925Z,4.87
2022-11-26T14:10:34.019Z,4.27
2022-11-26T14:13:04.330Z,4.77
2022-11-26T14:15:40.755Z,4.67
2022-11-26T14:18:13.477Z,5.07
2022-11-26T14:21:02.357Z,4.60
2022-11-26T14:23:42.214Z,4.80
2022-11-26T14:26:13.858Z,4.43
2022-11-26T14:28:41.222Z,5.53
2022-11-26T14:31:20.600Z,4.77
2022-11-26T14:33:49.816Z,4.40
2022-11-26T14:36:30.962Z,5.50
2022-11-26T14:39:15.367Z,5.30
2022-11-26T14:41:42.579Z,5.10
2022-11-26T14:44:15.848Z,5.20
2022-11-26T14:46:46.061Z,5.13
2022-11-26T14:49:47.246Z,5.07
2022-11-26T14:52:36.582Z,5.23
2022-11-26T14:55:08.996Z,5.60
2022-11-26T14:57:40.518Z,5.40
2022-11-26T15:00:13.802Z,5.07
2022-11-26T15:02:45.697Z,5.23
2022-11-26T15:05:23.859Z,6.30
2022-11-26T15:08:20.174Z,5.60
2022-11-26T15:10:47.388Z,6.50
2022-11-26T15:13:23.847Z,7.07
2022-11-26T15:15:52.923Z,5.70
2022-11-26T15:18:25.306Z,5.50
2022-11-26T15:20:53.860Z,5.30
2022-11-26T15:23:29.629Z,5.23
2022-11-26T15:25:58.924Z,5.60
2022-11-26T15:28:26.537Z,20.10
2022-11-26T15:31:02.977Z,18.00
2022-11-26T15:33:33.599Z,17.93
2022-11-26T15:36:02.211Z,6.20
2022-11-26T15:38:31.993Z,6.10
2022-11-26T15:41:14.372Z,6.93
2022-11-26T15:43:53.912Z,10.37
2022-11-26T15:46:29.265Z,7.50
2022-11-26T15:48:59.324Z,11.07
2022-11-26T15:51:41.355Z,9.73
2022-11-26T15:54:20.546Z,6.20
2022-11-26T15:56:57.285Z,5.73
2022-11-26T15:59:27.175Z,6.40
2022-11-26T16:01:54.934Z,6.03
2022-11-26T16:04:45.641Z,6.70
2022-11-26T16:07:17.530Z,6.87
2022-11-26T16:09:47.043Z,6.00
2022-11-26T16:12:29.806Z,6.43
2022-11-26T16:15:20.906Z,4.87
2022-11-26T16:17:49.553Z,4.40
2022-11-26T16:20:23.530Z,4.90
2022-11-26T16:22:53.728Z,5.40
2022-11-26T16:25:23.113Z,5.60
2022-11-26T16:28:11.379Z,6.33
2022-11-26T16:30:41.325Z,6.33
2022-11-26T16:33:09.148Z,6.60
2022-11-26T16:35:45.754Z,6.67
2022-11-26T16:38:22.988Z,8.37
2022-11-26T16:40:50.820Z,9.10
2022-11-26T16:43:18.288Z,10.67
2022-11-26T16:45:46.742Z,9.83
2022-11-26T16:48:25.689Z,10.37
2022-11-26T16:50:54.676Z,9.33
2022-11-26T16:53:23.190Z,7.30
2022-11-26T16:55:53.593Z,9.03
2022-11-26T16:58:34.203Z,15.70
2022-11-26T17:01:02.344Z,13.40
2022-11-26T17:03:33.252Z,10.70
2022-11-26T17:06:04.301Z,8.77
2022-11-26T17:08:31.971Z,4.63
2022-11-26T17:10:59.266Z,3.67
2022-11-26T17:13:29.499Z,3.60
2022-11-26T17:15:57.416Z,9.63
2022-11-26T17:18:25.777Z,3.63
2022-11-26T17:20:54.208Z,8.00
2022-11-26T17:23:21.533Z,3.60
2022-11-26T17:25:52.022Z,3.17
2022-11-26T17:28:21.223Z,4.80
2022-11-26T17:30:48.867Z,4.03
2022-11-26T17:33:16.463Z,5.40
2022-11-26T17:35:43.771Z,5.77
2022-11-26T17:38:16.525Z,6.00
2022-11-26T17:40:44.664Z,8.07
2022-11-26T17:43:12.259Z,7.10
2022-11-26T17:45:40.132Z,9.00
2022-11-26T17:48:11.416Z,5.87
2022-11-26T17:50:38.779Z,9.37
2022-11-26T17:53:06.053Z,8.40
2022-11-26T17:55:33.355Z,7.03
2022-11-26T17:58:00.826Z,7.97
2022-11-26T18:00:29.544Z,5.73
2022-11-26T18:02:57.680Z,9.33
2022-11-26T18:05:25.347Z,11.13
2022-11-26T18:07:52.977Z,10.70
2022-11-26T18:10:22.026Z,7.90
2022-11-26T18:12:52.165Z,5.90
2022-11-26T18:15:24.577Z,5.70
2022-11-26T18:17:54.235Z,5.73
2022-11-26T18:20:28.042Z,6.87
2022-11-26T18:22:59.330Z,6.47
2022-11-26T18:25:27.675Z,7.60
2022-11-26T18:27:55.511Z,9.27
2022-11-26T18:30:24.105Z,6.87
2022-11-26T18:32:51.392Z,6.30
2022-11-26T18:35:18.813Z,6.20
2022-11-26T18:37:46.489Z,5.63
2022-11-26T18:40:17.170Z,4.97
2022-11-26T18:42:45.109Z,5.27
2022-11-26T18:45:15.682Z,6.20
2022-11-26T18:47:43.034Z,5.87
2022-11-26T18:50:11.210Z,5.60
2022-11-26T18:52:38.826Z,6.27
2022-11-26T18:55:08.143Z,5.37
2022-11-26T18:57:36.006Z,4.33
2022-11-26T19:00:04.510Z,4.40
2022-11-26T19:02:31.859Z,5.07
2022-11-26T19:04:59.296Z,5.90
2022-11-26T19:07:26.825Z,6.07
2022-11-26T19:09:54.130Z,12.53
2022-11-26T19:12:21.383Z,21.80
2022-11-26T19:14:48.695Z,10.53
2022-11-26T19:17:16.183Z,16.70
2022-11-26T19:19:43.522Z,6.50
2022-11-26T19:22:10.826Z,4.97
2022-11-26T19:24:38.315Z,5.57
2022-11-26T19:27:05.877Z,5.80
2022-11-26T19:29:33.222Z,6.63
2022-11-26T19:32:00.477Z,6.03
2022-11-26T19:34:27.762Z,13.50
2022-11-26T19:36:57.663Z,11.43
2022-11-26T19:39:25.056Z,9.07
2022-11-26T19:41:52.449Z,8.77
2022-11-26T19:44:19.723Z,8.23
2022-11-26T19:46:48.103Z,7.13
2022-11-26T19:49:15.698Z,7.13
2022-11-26T19:51:43.063Z,9.83
2022-11-26T19:54:10.638Z,8.57
2022-11-26T19:56:38.341Z,8.40
2022-11-26T19:59:06.070Z,8.33
2022-11-26T20:01:34.422Z,8.43
2022-11-26T20:04:04.857Z,6.70
2022-11-26T20:06:34.034Z,6.70
2022-11-26T20:09:02.178Z,7.10
2022-11-26T20:11:29.673Z,6.80
2022-11-26T20:13:58.330Z,7.00
2022-11-26T20:16:28.473Z,6.40
2022-11-26T20:18:56.834Z,6.60
2022-11-26T20:21:27.634Z,6.00
2022-11-26T20:23:57.977Z,6.27
2022-11-26T20:26:31.646Z,6.67
2022-11-26T20:29:05.278Z,10.47
2022-11-26T20:31:33.274Z,10.17
2022-11-26T20:34:04.458Z,10.27
2022-11-26T20:36:32.126Z,6.43
2022-11-26T20:39:02.085Z,7.10
2022-11-26T20:41:30.619Z,6.60
2022-11-26T20:43:59.626Z,7.50
2022-11-26T20:46:28.683Z,7.53
2022-11-26T20:48:56.857Z,6.97
2022-11-26T20:51:25.019Z,6.77
2022-11-26T20:53:53.094Z,6.23
2022-11-26T20:56:21.995Z,6.93
2022-11-26T20:58:50.800Z,6.50
2022-11-26T21:01:21.321Z,6.07
2022-11-26T21:03:49.390Z,6.20
2022-11-26T21:06:19.197Z,6.07
2022-11-26T21:08:46.986Z,6.23
2022-11-26T21:11:15.904Z,6.53
2022-11-26T21:13:43.483Z,6.50
2022-11-26T21:16:16.465Z,6.50
2022-11-26T21:18:44.610Z,6.33
2022-11-26T21:21:17.191Z,6.77
2022-11-26T21:23:45.567Z,6.60
2022-11-26T21:26:17.343Z,6.73
2022-11-26T21:28:44.852Z,6.60
2022-11-26T21:31:18.281Z,6.00
2022-11-26T21:33:46.497Z,6.03
2022-11-26T21:36:15.885Z,6.53
2022-11-26T21:38:46.975Z,6.73
2022-11-26T21:41:15.685Z,6.70
2022-11-26T21:43:44.184Z,7.00
2022-11-26T21:46:16.130Z,6.37
2022-11-26T21:48:43.767Z,6.10
2022-11-26T21:51:13.856Z,6.90
2022-11-26T21:53:41.496Z,6.90
2022-11-26T21:56:09.930Z,7.10
2022-11-26T21:58:37.402Z,6.80
2022-11-26T22:01:17.919Z,6.27
2022-11-26T22:03:47.468Z,6.40
2022-11-26T22:06:16.050Z,5.90
2022-11-26T22:08:43.750Z,6.57
2022-11-26T22:11:14.097Z,7.20
2022-11-26T22:13:42.330Z,6.83
2022-11-26T22:16:11.393Z,7.10
2022-11-26T22:18:40.253Z,7.57
2022-11-26T22:21:10.934Z,6.73
2022-11-26T22:23:38.229Z,7.17
2022-11-26T22:26:05.770Z,6.53
2022-11-26T22:28:34.058Z,7.20
2022-11-26T22:31:22.783Z,7.37
2022-11-26T22:33:53.958Z,7.40
2022-11-26T22:36:21.390Z,7.40
2022-11-26T22:38:48.623Z,8.53
2022-11-26T22:41:16.318Z,7.83
2022-11-26T22:43:44.024Z,7.60
2022-11-26T22:46:17.353Z,7.27
2022-11-26T22:48:49.819Z,7.33
2022-11-26T22:51:17.753Z,8.37
2022-11-26T22:53:49.253Z,8.37
2022-11-26T22:56:17.459Z,8.03
2022-11-26T22:58:45.666Z,8.20
2022-11-26T23:01:21.998Z,8.00
2022-11-26T23:03:50.514Z,7.47
2022-11-26T23:06:20.171Z,7.57
2022-11-26T23:08:48.363Z,7.43
2022-11-26T23:11:25.036Z,8.23
2022-11-26T23:13:53.522Z,8.60
2022-11-26T23:16:22.777Z,8.13
2022-11-26T23:18:50.602Z,8.23
2022-11-26T23:21:20.583Z,8.80
2022-11-26T23:23:48.651Z,8.53
2022-11-26T23:26:24.883Z,8.77
2022-11-26T23:28:54.444Z,8.50
2022-11-26T23:31:25.036Z,9.23
2022-11-26T23:33:52.817Z,8.93
2022-11-26T23:36:20.583Z,9.20
2022-11-26T23:38:48.107Z,8.80
2022-11-26T23:41:15.763Z,8.67
2022-11-26T23:43:43.438Z,9.50
2022-11-26T23:46:15.642Z,9.90
2022-11-26T23:48:44.172Z,9.23
2022-11-26T23:51:31.749Z,10.20
2022-11-26T23:53:59.677Z,10.60
2022-11-26T23:56:30.080Z,10.13
2022-11-26T23:59:01.531Z,8.90
